PWSweather.com
Personal Weather Stations
Station Observations
TARRYHILL
Tarrytown, NY 10591

Tarrytown, NY 10591

Lat: 41.05185, Lon: -73.85296

Elevation: 341

Station Type: Davis Vantage Vue

Latest ConditionsUpdated 10:00:00 AM EDT Monday, Sep 24, 2018
Currently Today's Max Today's Min Today's Average
Temperature 57.0°F13.9°C 59.8°F15.4°C 49.2°F9.6°C 54.0°F12.2°C
Dew Point 51.9°F11.1°C 56.6°F13.7°C 47.3°F8.5°C 51.4°F10.8°C
Winds 1.2 mph E1.9 kmh E 1.2 mph -1.9 kmh - - 0.2 mph 0.3 kmh
Wind Gusts 5.8 mph9.3 kmh 5.8 mph9.3 kmh - -
Humidity 83% 94% 83% 91%
Pressure 30.50 in1032.8 mb 30.50 in1032.8 mb 30.33 in1027.1 mb -
Hour Temp Dew Point Humidity Winds Wind Gusts Pressure Precip Precip Rate Daily Precip Total
10:00 AM 57.0°F13.9°C 51.9°F11.1°C 83% 1.2 mph E1.9 kmh E 5.8 mph9.3 kmh 30.50 in1032.8 mb - 0.00 in0.0 mm 0.00 in0.0 mm
09:30 AM 54.8°F12.7°C 50.7°F10.4°C 86% Calm Calm -- 30.48 in1032.2 mb - 0.00 in0.0 mm 0.00 in0.0 mm
09:00 AM 52.6°F11.4°C 49.4°F9.7°C 89% Calm Calm 1.2 mph1.9 kmh 30.47 in1031.8 mb - 0.00 in0.0 mm 0.00 in0.0 mm
08:30 AM 51.8°F11.0°C 49.5°F9.7°C 92% Calm Calm -- 30.46 in1031.5 mb - 0.00 in0.0 mm 0.00 in0.0 mm
08:00 AM 50.6°F10.3°C 48.9°F9.4°C 94% Calm Calm -- 30.44 in1030.8 mb - 0.00 in0.0 mm 0.00 in0.0 mm
07:30 AM 49.3°F9.6°C 47.6°F8.7°C 94% Calm Calm -- 30.43 in1030.5 mb - 0.00 in0.0 mm 0.00 in0.0 mm
07:00 AM 49.2°F9.6°C 47.3°F8.5°C 93% Calm Calm -- 30.42 in1030.1 mb - 0.00 in0.0 mm 0.00 in0.0 mm
06:30 AM 50.1°F10.1°C 48.2°F9.0°C 93% Calm Calm -- 30.40 in1029.5 mb - 0.00 in0.0 mm 0.00 in0.0 mm
06:00 AM 50.7°F10.4°C 48.5°F9.2°C 92% Calm Calm -- 30.39 in1029.1 mb - 0.00 in0.0 mm 0.00 in0.0 mm
05:30 AM 51.6°F10.9°C 49.4°F9.7°C 92% Calm Calm -- 30.38 in1028.8 mb - 0.00 in0.0 mm 0.00 in0.0 mm
05:00 AM 52.3°F11.3°C 50.1°F10.1°C 92% Calm Calm -- 30.36 in1028.1 mb - 0.00 in0.0 mm 0.00 in0.0 mm
04:30 AM 53.2°F11.8°C 51.2°F10.7°C 93% Calm Calm 1.2 mph1.9 kmh 30.35 in1027.8 mb - 0.00 in0.0 mm 0.00 in0.0 mm
04:00 AM 53.6°F12.0°C 51.6°F10.9°C 93% 1.2 mph NW1.9 kmh NW 2.3 mph3.7 kmh 30.34 in1027.4 mb - 0.00 in0.0 mm 0.00 in0.0 mm
03:30 AM 54.3°F12.4°C 52.3°F11.3°C 93% Calm Calm -- 30.34 in1027.4 mb - 0.00 in0.0 mm 0.00 in0.0 mm
03:00 AM 54.9°F12.7°C 52.6°F11.4°C 92% Calm Calm 1.2 mph1.9 kmh 30.33 in1027.1 mb - 0.00 in0.0 mm 0.00 in0.0 mm
02:30 AM 55.4°F13.0°C 53.1°F11.7°C 92% Calm Calm -- 30.33 in1027.1 mb - 0.00 in0.0 mm 0.00 in0.0 mm
02:00 AM 56.1°F13.4°C 53.5°F11.9°C 91% Calm Calm -- 30.33 in1027.1 mb - 0.00 in0.0 mm 0.00 in0.0 mm
01:30 AM 57.6°F14.2°C 54.7°F12.6°C 90% Calm Calm -- 30.33 in1027.1 mb - 0.00 in0.0 mm 0.00 in0.0 mm
01:00 AM 58.9°F14.9°C 55.7°F13.2°C 89% Calm Calm 1.2 mph1.9 kmh 30.33 in1027.1 mb - 0.00 in0.0 mm 0.00 in0.0 mm
12:30 AM 59.5°F15.3°C 56.6°F13.7°C 90% 1.2 mph NW1.9 kmh NW 3.5 mph5.6 kmh 30.33 in1027.1 mb - 0.00 in0.0 mm 0.00 in0.0 mm
12:00 AM 59.8°F15.4°C 56.6°F13.7°C 89% Calm Calm -- 30.33 in1027.1 mb - 0.00 in0.0 mm 0.00 in0.0 mm